Time;durP1;ratioP1;P1;durP2;ratioP2;P2;SDS_P1;SDS_P2;PMS_P1;PMS_P2;Temp;Humidity;BMP_temperature;BMP_pressure;BME280_temperature;BME280_humidity;BME280_pressure;Samples;Min_cycle;Max_cycle;Signal;HPM_P1;HPM_P2
2021/01/10 00:01:04;;;;;;;26.25;15.95;;;3.20;99.90;;;;;;5018148;28;20208;-87
2021/01/10 00:03:30;;;;;;;28.20;16.33;;;3.00;99.90;;;;;;5017323;28;20197;-84
2021/01/10 00:05:56;;;;;;;26.10;15.70;;;2.90;99.90;;;;;;5017714;28;20204;-85
2021/01/10 00:08:23;;;;;;;28.38;17.17;;;3.00;99.90;;;;;;5017725;28;20274;-85
2021/01/10 00:10:49;;;;;;;30.17;17.80;;;2.90;99.90;;;;;;5019611;28;20212;-84
2021/01/10 00:13:16;;;;;;;27.08;18.67;;;3.10;99.90;;;;;;5018628;28;20732;-84
2021/01/10 00:15:43;;;;;;;29.35;16.27;;;3.20;99.90;;;;;;5019251;28;20208;-84
2021/01/10 00:18:10;;;;;;;26.55;16.35;;;3.00;99.90;;;;;;5020095;28;20204;-84
2021/01/10 00:20:38;;;;;;;30.02;16.80;;;2.90;99.90;;;;;;5022926;28;20216;-84
2021/01/10 00:23:04;;;;;;;27.08;17.40;;;2.90;99.90;;;;;;5023254;28;20362;-84
2021/01/10 00:25:31;;;;;;;31.70;18.10;;;2.90;99.90;;;;;;5023820;28;20262;-84
2021/01/10 00:27:57;;;;;;;30.08;19.00;;;2.90;99.90;;;;;;5023667;28;20208;-85
2021/01/10 00:30:24;;;;;;;31.10;18.17;;;3.00;99.90;;;;;;5023219;28;20306;-84
2021/01/10 00:32:52;;;;;;;25.80;15.43;;;3.10;99.90;;;;;;5024249;28;20224;-85
2021/01/10 00:35:20;;;;;;;27.95;17.20;;;2.90;99.90;;;;;;5024156;28;20214;-85
2021/01/10 00:37:47;;;;;;;25.38;17.88;;;3.00;99.90;;;;;;5023915;28;20204;-85
2021/01/10 00:40:14;;;;;;;26.92;16.02;;;2.90;99.90;;;;;;5023988;28;20265;-84
2021/01/10 00:42:41;;;;;;;28.67;16.77;;;3.00;99.90;;;;;;5024359;28;20228;-84
2021/01/10 00:45:10;;;;;;;32.03;17.40;;;3.00;99.90;;;;;;5023349;28;20201;-84
2021/01/10 00:47:37;;;;;;;27.25;16.00;;;2.80;99.90;;;;;;5022956;28;20208;-85
2021/01/10 00:50:05;;;;;;;30.13;18.58;;;2.80;99.90;;;;;;5023047;28;20262;-85
2021/01/10 00:52:33;;;;;;;30.65;17.40;;;2.80;99.90;;;;;;5024545;28;20575;-86
2021/01/10 00:55:00;;;;;;;29.38;17.52;;;3.00;99.90;;;;;;5022017;28;20220;-86
2021/01/10 00:57:27;;;;;;;30.00;16.83;;;2.90;99.90;;;;;;5021541;28;20204;-85
2021/01/10 00:59:53;;;;;;;30.13;15.90;;;2.90;99.90;;;;;;5021050;28;20214;-86
2021/01/10 01:02:19;;;;;;;30.10;17.23;;;2.90;99.90;;;;;;5021731;28;20296;-85
2021/01/10 01:04:48;;;;;;;26.45;16.98;;;3.00;99.90;;;;;;5022236;28;20197;-85
2021/01/10 01:07:14;;;;;;;26.40;15.98;;;2.90;99.90;;;;;;5023245;28;20585;-84
2021/01/10 01:09:40;;;;;;;27.33;17.67;;;3.00;99.90;;;;;;5023765;28;20215;-86
2021/01/10 01:12:08;;;;;;;26.48;17.27;;;2.90;99.90;;;;;;5023258;28;20232;-84
2021/01/10 01:14:34;;;;;;;29.13;17.65;;;3.00;99.90;;;;;;5026352;28;20220;-85
2021/01/10 01:17:01;;;;;;;29.33;16.50;;;3.10;99.90;;;;;;5032382;28;20201;-84
2021/01/10 01:19:27;;;;;;;26.55;17.17;;;3.10;99.90;;;;;;5030161;28;20291;-85
2021/01/10 01:21:59;;;;;;;31.23;18.13;;;3.10;99.90;;;;;;5021148;28;20251;-85
2021/01/10 01:24:26;;;;;;;27.00;17.42;;;3.00;99.90;;;;;;5021547;28;20232;-83
2021/01/10 01:26:53;;;;;;;26.98;15.68;;;3.00;99.90;;;;;;5020074;28;20204;-84
2021/01/10 01:29:19;;;;;;;24.35;15.95;;;3.00;99.90;;;;;;5019987;28;20708;-85
2021/01/10 01:31:45;;;;;;;24.08;14.48;;;3.10;99.90;;;;;;5020999;28;20319;-84
2021/01/10 01:34:12;;;;;;;21.95;12.65;;;3.10;99.90;;;;;;5021583;28;20217;-85
2021/01/10 01:36:38;;;;;;;24.95;14.82;;;3.10;99.90;;;;;;5020899;28;20204;-85
2021/01/10 01:39:06;;;;;;;20.15;12.40;;;3.10;99.90;;;;;;5021190;28;20284;-84
2021/01/10 01:41:36;;;;;;;22.45;14.23;;;3.10;99.90;;;;;;5021664;28;20323;-85
2021/01/10 01:44:03;;;;;;;19.13;12.90;;;3.10;99.90;;;;;;5020671;28;20188;-85
2021/01/10 01:46:31;;;;;;;17.48;12.07;;;3.00;99.90;;;;;;5020776;28;20312;-85
2021/01/10 01:48:58;;;;;;;24.15;14.27;;;3.00;99.90;;;;;;5022248;28;20296;-85
2021/01/10 01:51:28;;;;;;;19.02;12.40;;;3.00;99.90;;;;;;5022200;28;20358;-84
2021/01/10 01:53:55;;;;;;;20.05;12.50;;;3.10;99.90;;;;;;5024633;28;20219;-84
2021/01/10 01:56:22;;;;;;;24.85;13.95;;;3.20;99.90;;;;;;5027307;28;20200;-84
2021/01/10 01:59:00;;;;;;;25.25;16.08;;;3.10;99.90;;;;;;5024209;28;20216;-84
2021/01/10 02:01:28;;;;;;;22.05;12.85;;;3.00;99.90;;;;;;5023069;28;20221;-83
2021/01/10 02:04:00;;;;;;;19.80;12.52;;;2.90;99.90;;;;;;5023780;28;20205;-85
2021/01/10 02:06:33;;;;;;;22.38;13.75;;;2.90;99.90;;;;;;5022741;28;20193;-83
2021/01/10 02:09:08;;;;;;;20.48;12.90;;;2.80;99.90;;;;;;5022931;28;20188;-85
2021/01/10 02:11:38;;;;;;;24.10;15.13;;;2.80;99.90;;;;;;5024236;28;20295;-83
2021/01/10 02:14:08;;;;;;;29.02;14.82;;;2.90;99.90;;;;;;5024034;28;20212;-85
2021/01/10 02:16:37;;;;;;;27.40;16.42;;;2.80;99.90;;;;;;5024432;28;20226;-85
2021/01/10 02:19:08;;;;;;;32.72;18.63;;;2.90;99.90;;;;;;5024115;28;20367;-83
2021/01/10 02:21:36;;;;;;;31.15;16.88;;;2.80;99.90;;;;;;5023500;28;20224;-86
2021/01/10 02:24:06;;;;;;;34.17;19.15;;;2.90;99.90;;;;;;5024202;28;20224;-84
2021/01/10 02:26:33;;;;;;;32.13;16.63;;;2.80;99.90;;;;;;5024888;28;20283;-84
2021/01/10 02:28:59;;;;;;;37.60;18.60;;;2.80;99.90;;;;;;5023070;28;20200;-85
2021/01/10 02:31:30;;;;;;;32.70;17.33;;;2.80;99.90;;;;;;5024860;28;20224;-85
2021/01/10 02:33:58;;;;;;;27.23;15.55;;;2.80;99.90;;;;;;5023605;28;20677;-85
2021/01/10 02:36:30;;;;;;;28.27;16.73;;;2.80;99.90;;;;;;5025367;28;20209;-85
2021/01/10 02:39:04;;;;;;;31.10;16.98;;;2.70;99.90;;;;;;5025064;28;20238;-86
2021/01/10 02:41:39;;;;;;;26.85;16.45;;;2.80;99.90;;;;;;5023331;28;20302;-85
2021/01/10 02:44:13;;;;;;;26.00;14.68;;;2.70;99.90;;;;;;5025348;28;20278;-85
2021/01/10 02:46:41;;;;;;;23.30;14.43;;;2.70;99.90;;;;;;5028272;28;20184;-84
2021/01/10 02:49:08;;;;;;;21.90;13.13;;;2.80;99.90;;;;;;5032303;28;20271;-85
2021/01/10 02:51:34;;;;;;;26.33;14.43;;;2.80;99.90;;;;;;5032225;28;20228;-85
2021/01/10 02:54:00;;;;;;;22.13;13.98;;;2.70;99.90;;;;;;5026833;28;20224;-84
2021/01/10 02:56:34;;;;;;;24.08;14.38;;;2.70;99.90;;;;;;5025044;28;20268;-86
2021/01/10 02:59:01;;;;;;;25.27;14.02;;;2.80;99.90;;;;;;5025019;28;20192;-85
2021/01/10 03:01:28;;;;;;;21.55;13.23;;;2.70;99.90;;;;;;5023943;28;20224;-85
2021/01/10 03:03:55;;;;;;;21.38;12.80;;;2.70;99.90;;;;;;5024403;28;20204;-85
2021/01/10 03:06:22;;;;;;;20.60;13.23;;;2.70;99.90;;;;;;5026181;28;20204;-85
2021/01/10 03:08:50;;;;;;;25.67;14.35;;;2.60;99.90;;;;;;5027634;28;20208;-85
2021/01/10 03:11:17;;;;;;;23.67;13.30;;;2.60;99.90;;;;;;5025117;28;20780;-85
2021/01/10 03:13:49;;;;;;;21.45;13.05;;;2.70;99.90;;;;;;5023631;28;20271;-85
2021/01/10 03:16:16;;;;;;;27.67;16.00;;;2.70;99.90;;;;;;5024701;28;20277;-84
2021/01/10 03:18:43;;;;;;;24.02;14.50;;;2.60;99.90;;;;;;5021794;28;20211;-84
2021/01/10 03:21:09;;;;;;;22.63;14.07;;;2.60;99.90;;;;;;5023260;28;20208;-84
2021/01/10 03:23:35;;;;;;;23.33;13.07;;;2.60;99.90;;;;;;5023432;28;20196;-84
2021/01/10 03:26:02;;;;;;;24.15;14.55;;;2.70;99.90;;;;;;5023735;28;20204;-85
2021/01/10 03:28:28;;;;;;;23.17;14.75;;;2.70;99.90;;;;;;5022475;28;20204;-85
2021/01/10 03:30:55;;;;;;;20.25;13.07;;;2.70;99.90;;;;;;5021625;28;20625;-85
2021/01/10 03:33:22;;;;;;;23.67;13.77;;;2.70;99.90;;;;;;5021744;28;20232;-84
2021/01/10 03:35:49;;;;;;;23.25;13.73;;;2.70;99.90;;;;;;5021255;28;20660;-84
2021/01/10 03:38:15;;;;;;;22.48;14.18;;;2.80;99.90;;;;;;5022885;28;20208;-84
2021/01/10 03:40:41;;;;;;;22.42;14.77;;;2.70;99.90;;;;;;5022032;28;20625;-84
2021/01/10 03:43:08;;;;;;;22.40;13.60;;;2.80;99.90;;;;;;5020673;28;20226;-84
2021/01/10 03:45:34;;;;;;;23.52;12.55;;;2.80;99.90;;;;;;5020485;28;20303;-85
2021/01/10 03:48:01;;;;;;;15.88;10.80;;;2.70;99.90;;;;;;5022440;28;20208;-84
2021/01/10 03:50:28;;;;;;;19.52;11.43;;;2.80;99.90;;;;;;5021759;28;20267;-84
2021/01/10 03:52:54;;;;;;;15.57;11.20;;;2.70;99.90;;;;;;5021984;28;20232;-85
2021/01/10 03:55:21;;;;;;;15.07;10.45;;;2.70;99.90;;;;;;5026254;28;20727;-85
2021/01/10 03:57:47;;;;;;;19.25;11.77;;;2.80;99.90;;;;;;5026160;28;20200;-85
2021/01/10 04:00:14;;;;;;;22.80;12.68;;;2.80;99.90;;;;;;5025246;28;20212;-85
2021/01/10 04:02:40;;;;;;;16.60;10.40;;;2.70;99.90;;;;;;5026160;28;20374;-84
2021/01/10 04:05:08;;;;;;;21.20;13.18;;;2.80;99.90;;;;;;5026614;28;20264;-85
2021/01/10 04:07:34;;;;;;;18.60;12.23;;;2.80;99.90;;;;;;5027267;28;20210;-85
2021/01/10 04:10:05;;;;;;;22.10;13.73;;;2.70;99.90;;;;;;5033808;28;20211;-85
2021/01/10 04:12:32;;;;;;;22.83;13.10;;;2.70;99.90;;;;;;5032319;28;20622;-85
2021/01/10 04:14:58;;;;;;;19.05;13.25;;;2.80;99.90;;;;;;5024872;28;20228;-85
2021/01/10 04:17:25;;;;;;;18.42;11.85;;;2.80;99.90;;;;;;5024852;28;20260;-85
2021/01/10 04:19:52;;;;;;;15.30;10.05;;;2.90;99.90;;;;;;5024380;28;20759;-85
2021/01/10 04:22:20;;;;;;;19.63;11.52;;;2.80;99.90;;;;;;5023773;28;20228;-85
2021/01/10 04:24:46;;;;;;;16.25;12.10;;;2.80;99.90;;;;;;5025580;28;20200;-84
2021/01/10 04:27:12;;;;;;;18.35;11.90;;;2.70;99.90;;;;;;5025483;28;20212;-85
2021/01/10 04:29:39;;;;;;;15.63;10.43;;;2.60;99.90;;;;;;5026248;28;20201;-84
2021/01/10 04:32:08;;;;;;;18.27;12.50;;;2.50;99.90;;;;;;5025920;28;20228;-85
2021/01/10 04:34:34;;;;;;;17.67;11.70;;;2.50;99.90;;;;;;5026336;28;20224;-84
2021/01/10 04:37:00;;;;;;;16.77;11.35;;;2.60;99.90;;;;;;5027095;28;20545;-84
2021/01/10 04:39:28;;;;;;;19.83;10.65;;;2.60;99.90;;;;;;5026777;28;20206;-84
2021/01/10 04:41:55;;;;;;;17.10;10.43;;;2.60;99.90;;;;;;5027986;28;20295;-84
2021/01/10 04:44:23;;;;;;;19.08;12.55;;;2.50;99.90;;;;;;5027021;28;20222;-84
2021/01/10 04:46:50;;;;;;;16.98;11.65;;;2.40;99.90;;;;;;5027019;28;20208;-84
2021/01/10 04:49:17;;;;;;;18.40;12.35;;;2.50;99.90;;;;;;5026247;28;20236;-84
2021/01/10 04:51:45;;;;;;;18.23;12.18;;;2.50;99.90;;;;;;5026559;28;20232;-84
2021/01/10 04:54:12;;;;;;;19.40;12.25;;;2.60;99.90;;;;;;5025910;28;20227;-85
2021/01/10 04:56:42;;;;;;;18.35;13.70;;;2.60;99.90;;;;;;5026388;28;20676;-84
2021/01/10 04:59:08;;;;;;;16.90;10.45;;;2.50;99.90;;;;;;5026043;28;20188;-85
2021/01/10 05:01:37;;;;;;;20.27;11.98;;;2.50;99.90;;;;;;5025669;28;20220;-84
2021/01/10 05:04:04;;;;;;;21.25;12.75;;;2.40;99.90;;;;;;5025316;28;20231;-84
2021/01/10 05:06:34;;;;;;;17.77;11.98;;;2.50;99.90;;;;;;5025849;28;20206;-84
2021/01/10 05:09:01;;;;;;;22.65;12.52;;;2.40;99.90;;;;;;5025864;28;20243;-84
2021/01/10 05:11:29;;;;;;;24.50;12.50;;;2.20;99.90;;;;;;5025617;28;20224;-84
2021/01/10 05:13:56;;;;;;;22.77;14.35;;;2.20;99.90;;;;;;5025520;28;20239;-84
2021/01/10 05:16:22;;;;;;;20.27;12.25;;;2.20;99.90;;;;;;5025043;28;20208;-84
2021/01/10 05:18:50;;;;;;;19.15;12.13;;;2.10;99.90;;;;;;5025299;28;20262;-84
2021/01/10 05:21:19;;;;;;;23.73;12.70;;;2.10;99.90;;;;;;5025370;28;20227;-85
2021/01/10 05:23:45;;;;;;;22.88;12.80;;;2.00;99.90;;;;;;5024215;28;20203;-84
2021/01/10 05:26:12;;;;;;;22.38;12.63;;;2.00;99.90;;;;;;5025586;28;20216;-84
2021/01/10 05:28:38;;;;;;;19.85;12.57;;;2.10;99.90;;;;;;5026563;28;20243;-84
2021/01/10 05:31:10;;;;;;;21.25;12.30;;;2.00;99.90;;;;;;5026154;28;20657;-85
2021/01/10 05:33:50;;;;;;;19.73;12.32;;;2.10;99.90;;;;;;5024217;28;20647;-84
2021/01/10 05:36:28;;;;;;;20.38;12.95;;;2.00;99.90;;;;;;5024587;28;20291;-84
2021/01/10 05:38:55;;;;;;;25.85;12.55;;;2.00;99.90;;;;;;5023777;28;20192;-85
2021/01/10 05:41:23;;;;;;;17.73;11.38;;;1.90;99.90;;;;;;5025966;28;20238;-84
2021/01/10 05:44:01;;;;;;;23.20;13.80;;;1.90;99.90;;;;;;5025680;28;20196;-84
2021/01/10 05:46:31;;;;;;;20.27;11.68;;;1.90;99.90;;;;;;5024316;28;20477;-84
2021/01/10 05:49:02;;;;;;;20.60;14.18;;;1.90;99.90;;;;;;5025503;28;20668;-85
2021/01/10 05:51:31;;;;;;;20.80;12.90;;;1.90;99.90;;;;;;5024357;28;21003;-84
2021/01/10 05:53:57;;;;;;;20.42;12.15;;;1.90;99.90;;;;;;5027201;28;20284;-84
2021/01/10 05:56:24;;;;;;;19.55;12.13;;;1.90;99.90;;;;;;5028962;28;20216;-84
2021/01/10 05:58:55;;;;;;;26.48;12.73;;;1.90;99.90;;;;;;5033200;28;20188;-84
2021/01/10 06:01:22;;;;;;;17.67;12.02;;;2.00;99.90;;;;;;5033740;28;20224;-85
2021/01/10 06:03:51;;;;;;;19.27;13.40;;;2.00;99.90;;;;;;5029223;28;20431;-84
2021/01/10 06:06:17;;;;;;;19.20;12.40;;;2.00;99.90;;;;;;5026289;28;20280;-84
2021/01/10 06:08:44;;;;;;;19.50;11.65;;;2.00;99.90;;;;;;5025352;28;20243;-84
2021/01/10 06:11:21;;;;;;;19.20;11.45;;;1.90;99.90;;;;;;5024454;28;20280;-84
2021/01/10 06:13:53;;;;;;;19.45;11.32;;;1.90;99.90;;;;;;5025325;28;20766;-85
2021/01/10 06:16:21;;;;;;;17.00;10.68;;;1.90;99.90;;;;;;5025009;28;20264;-85
2021/01/10 06:18:51;;;;;;;18.80;11.70;;;1.90;99.90;;;;;;5025155;28;20608;-85
2021/01/10 06:21:20;;;;;;;18.92;11.15;;;1.90;99.90;;;;;;5024078;28;20198;-85
2021/01/10 06:23:51;;;;;;;16.33;10.98;;;1.90;99.90;;;;;;5024302;28;20269;-85
2021/01/10 06:26:20;;;;;;;15.35;10.48;;;1.90;99.90;;;;;;5025395;28;20279;-84
2021/01/10 06:28:58;;;;;;;17.48;10.45;;;1.80;99.90;;;;;;5026621;28;20315;-84
2021/01/10 06:31:27;;;;;;;17.45;10.32;;;1.90;99.90;;;;;;5029825;28;20232;-84
2021/01/10 06:34:04;;;;;;;17.70;11.05;;;1.90;99.90;;;;;;5030080;28;20244;-83
2021/01/10 06:36:32;;;;;;;16.98;11.15;;;2.00;99.90;;;;;;5028519;28;20242;-83
2021/01/10 06:39:05;;;;;;;15.25;8.95;;;2.00;99.90;;;;;;5027535;28;20217;-83
2021/01/10 06:42:06;;;;;;;15.25;9.07;;;2.00;99.90;;;;;;5025126;28;20224;-83
2021/01/10 06:44:37;;;;;;;13.25;9.85;;;2.00;99.90;;;;;;5023097;28;20200;-84
2021/01/10 06:47:05;;;;;;;13.52;9.27;;;2.00;99.90;;;;;;5023652;28;20744;-84
2021/01/10 06:49:33;;;;;;;13.77;10.05;;;2.10;99.90;;;;;;5025207;28;20205;-84
2021/01/10 06:52:03;;;;;;;16.88;10.60;;;2.10;99.90;;;;;;5023916;28;20315;-84
2021/01/10 06:54:29;;;;;;;17.38;10.43;;;2.10;99.90;;;;;;5022732;28;20220;-84
2021/01/10 06:56:56;;;;;;;14.07;9.90;;;2.10;99.90;;;;;;5022821;28;20206;-85
2021/01/10 06:59:23;;;;;;;14.55;9.55;;;2.00;99.90;;;;;;5023241;28;20204;-85
2021/01/10 07:02:02;;;;;;;17.10;9.75;;;1.90;99.90;;;;;;5031409;28;20255;-84
2021/01/10 07:04:56;;;;;;;15.32;11.00;;;1.90;99.90;;;;;;5035263;28;20461;-84
2021/01/10 07:07:40;;;;;;;14.82;9.93;;;1.90;99.90;;;;;;5023097;28;20431;-84
2021/01/10 07:10:23;;;;;;;13.15;9.43;;;1.90;99.90;;;;;;5022887;28;20189;-84
2021/01/10 07:12:49;;;;;;;14.70;9.07;;;1.90;99.90;;;;;;5017188;28;20236;-84
2021/01/10 07:15:29;;;;;;;12.27;9.80;;;1.90;99.90;;;;;;5023230;28;20712;-84
2021/01/10 07:18:11;;;;;;;15.77;10.43;;;1.80;99.90;;;;;;5023281;28;20189;-84
2021/01/10 07:20:43;;;;;;;14.18;10.20;;;1.90;99.90;;;;;;5026324;28;20269;-84
2021/01/10 07:23:30;;;;;;;20.55;11.43;;;1.80;99.90;;;;;;5034827;28;20317;-84
2021/01/10 07:26:00;;;;;;;12.25;9.30;;;1.80;99.90;;;;;;5034653;28;20216;-84
2021/01/10 07:28:42;;;;;;;17.85;11.70;;;1.80;99.90;;;;;;5038808;28;20208;-84
2021/01/10 07:31:15;;;;;;;18.10;10.05;;;1.80;99.90;;;;;;5040727;28;20283;-84
2021/01/10 07:33:41;;;;;;;13.18;10.30;;;1.80;99.90;;;;;;5041544;28;20251;-84
2021/01/10 07:36:09;;;;;;;17.38;10.18;;;1.80;99.90;;;;;;5041845;28;20207;-84
2021/01/10 07:38:36;;;;;;;18.10;11.57;;;2.00;99.90;;;;;;5042270;28;20204;-84
2021/01/10 07:41:28;;;;;;;11.50;8.88;;;2.10;99.90;;;;;;5041253;28;20268;-84
2021/01/10 07:43:57;;;;;;;14.63;10.63;;;2.00;99.90;;;;;;5041378;28;20208;-84
2021/01/10 07:47:01;;;;;;;17.75;10.10;;;2.00;99.90;;;;;;5041598;28;20235;-84
2021/01/10 07:49:47;;;;;;;14.93;9.65;;;1.90;99.90;;;;;;5031491;28;20223;-84
2021/01/10 07:52:17;;;;;;;14.68;10.57;;;1.90;99.90;;;;;;5032241;28;20238;-84
2021/01/10 07:54:54;;;;;;;11.75;8.75;;;1.80;99.90;;;;;;5030335;28;20275;-84
2021/01/10 07:57:33;;;;;;;14.73;10.23;;;1.90;99.90;;;;;;5030994;28;20195;-84
2021/01/10 08:00:15;;;;;;;13.18;8.70;;;1.80;99.90;;;;;;5030795;28;20204;-84
2021/01/10 08:02:59;;;;;;;13.48;9.73;;;1.90;99.90;;;;;;5029081;28;20250;-85
2021/01/10 08:05:33;;;;;;;11.48;8.52;;;1.90;99.90;;;;;;5028949;28;20207;-85
2021/01/10 08:08:04;;;;;;;13.70;9.93;;;1.80;99.90;;;;;;5028673;28;20462;-84
2021/01/10 08:10:46;;;;;;;15.38;11.43;;;1.80;99.90;;;;;;5028493;28;20201;-84
2021/01/10 08:13:35;;;;;;;14.02;9.85;;;1.80;99.90;;;;;;5065235;22;20262;-80
2021/01/10 08:16:08;;;;;;;13.68;8.82;;;1.90;99.90;;;;;;5065033;28;20234;-81
2021/01/10 08:18:46;;;;;;;14.55;8.05;;;1.90;99.90;;;;;;5066739;28;20191;-83
2021/01/10 08:21:14;;;;;;;14.43;9.15;;;2.00;99.90;;;;;;5065558;28;20187;-82
2021/01/10 08:23:46;;;;;;;13.95;8.85;;;2.10;99.90;;;;;;5066720;28;20219;-82
2021/01/10 08:26:13;;;;;;;11.10;8.20;;;2.10;99.90;;;;;;5066200;28;20238;-83
2021/01/10 08:28:44;;;;;;;10.88;7.70;;;2.20;99.90;;;;;;5068687;28;20210;-83
2021/01/10 08:31:13;;;;;;;17.83;9.52;;;2.10;99.90;;;;;;5067022;28;20237;-79
2021/01/10 08:33:48;;;;;;;14.98;10.70;;;2.00;99.90;;;;;;5072198;28;20222;-79
2021/01/10 08:36:19;;;;;;;15.63;10.77;;;1.90;99.90;;;;;;5070777;28;20191;-79
2021/01/10 08:38:49;;;;;;;15.93;10.93;;;1.90;99.90;;;;;;5072607;28;20805;-79
2021/01/10 08:41:26;;;;;;;17.10;9.80;;;1.90;99.90;;;;;;5064855;28;20298;-83
2021/01/10 08:44:15;;;;;;;14.23;9.25;;;1.80;99.90;;;;;;5062877;28;20486;-81
2021/01/10 08:46:42;;;;;;;13.60;9.48;;;1.80;99.90;;;;;;5062769;28;20435;-82
2021/01/10 08:49:09;;;;;;;11.90;9.27;;;1.70;99.90;;;;;;5062377;28;20498;-81
2021/01/10 08:51:41;;;;;;;11.23;7.80;;;1.80;99.90;;;;;;5064270;28;20439;-82
2021/01/10 08:54:13;;;;;;;9.27;7.75;;;1.90;99.90;;;;;;5065123;28;20494;-82
2021/01/10 08:56:41;;;;;;;10.10;8.20;;;1.80;99.90;;;;;;5070023;28;20440;-78
2021/01/10 08:59:08;;;;;;;11.60;8.65;;;1.70;99.90;;;;;;5068606;28;20206;-79
2021/01/10 09:01:38;;;;;;;13.52;9.02;;;1.90;99.90;;;;;;5067640;28;20203;-81
2021/01/10 09:04:10;;;;;;;9.77;7.47;;;1.80;99.90;;;;;;5065960;28;20206;-81
2021/01/10 09:06:44;;;;;;;10.38;8.15;;;1.70;99.90;;;;;;5063154;28;20183;-81
2021/01/10 09:09:20;;;;;;;12.02;8.73;;;1.60;99.90;;;;;;5064226;28;20206;-81
2021/01/10 09:11:55;;;;;;;12.55;8.80;;;1.80;99.90;;;;;;5062521;28;20306;-81
2021/01/10 09:14:25;;;;;;;9.43;7.70;;;1.90;99.90;;;;;;5063450;28;20606;-81
2021/01/10 09:16:58;;;;;;;11.85;7.95;;;2.00;99.90;;;;;;5063348;28;20187;-80
2021/01/10 09:19:32;;;;;;;12.93;8.63;;;2.10;99.90;;;;;;5063299;28;20214;-80
2021/01/10 09:21:59;;;;;;;11.35;8.00;;;2.10;99.90;;;;;;5063313;28;20565;-82
2021/01/10 09:24:31;;;;;;;12.52;8.80;;;2.30;99.90;;;;;;5064019;28;20199;-80
2021/01/10 09:27:09;;;;;;;11.15;8.15;;;2.30;99.90;;;;;;5062900;28;20179;-80
2021/01/10 09:29:35;;;;;;;13.50;9.30;;;2.20;99.90;;;;;;5062905;28;20201;-82
2021/01/10 09:32:03;;;;;;;13.35;8.68;;;2.10;99.90;;;;;;5062625;28;20215;-81
2021/01/10 09:34:29;;;;;;;10.63;8.57;;;2.00;99.90;;;;;;5062677;28;20218;-82
2021/01/10 09:37:03;;;;;;;10.60;8.50;;;1.90;99.90;;;;;;5062416;28;20207;-82
2021/01/10 09:39:44;;;;;;;9.85;7.38;;;2.00;99.90;;;;;;5060111;28;20202;-82
2021/01/10 09:42:12;;;;;;;10.07;7.82;;;2.10;99.90;;;;;;5060284;28;20231;-81
2021/01/10 09:44:39;;;;;;;12.57;9.43;;;1.90;99.90;;;;;;5060474;28;20266;-82
2021/01/10 09:47:06;;;;;;;9.55;8.43;;;1.60;99.90;;;;;;5060713;28;20271;-81
2021/01/10 09:49:34;;;;;;;13.65;9.25;;;1.70;99.90;;;;;;5060230;28;20206;-82
2021/01/10 09:52:02;;;;;;;12.30;9.30;;;1.70;99.90;;;;;;5060364;28;20219;-82
2021/01/10 09:54:31;;;;;;;13.90;9.82;;;1.70;99.90;;;;;;5071234;28;20302;-82
2021/01/10 09:56:59;;;;;;;14.18;9.60;;;1.70;99.90;;;;;;5077681;28;20207;-80
2021/01/10 09:59:36;;;;;;;13.13;10.32;;;1.80;99.90;;;;;;5069204;28;20267;-81
2021/01/10 10:02:18;;;;;;;10.73;8.32;;;1.80;99.90;;;;;;5062629;28;20230;-83
2021/01/10 10:04:45;;;;;;;11.98;9.63;;;2.00;99.90;;;;;;5060125;28;20187;-82
2021/01/10 10:07:13;;;;;;;13.15;8.77;;;2.00;99.90;;;;;;5060363;28;20298;-82
2021/01/10 10:09:53;;;;;;;15.27;10.25;;;2.00;99.90;;;;;;5060383;28;20219;-81
2021/01/10 10:12:22;;;;;;;14.73;9.45;;;2.30;99.90;;;;;;5059698;28;20238;-82
2021/01/10 10:14:53;;;;;;;15.00;10.80;;;2.10;99.90;;;;;;5059966;28;20255;-82
2021/01/10 10:17:20;;;;;;;12.57;9.60;;;2.00;99.90;;;;;;5059867;28;20293;-82
2021/01/10 10:19:47;;;;;;;12.45;9.02;;;1.90;99.90;;;;;;5059857;28;20199;-82
2021/01/10 10:22:22;;;;;;;14.15;10.10;;;2.10;99.90;;;;;;5059211;28;20226;-82
2021/01/10 10:24:49;;;;;;;13.07;9.75;;;2.20;99.90;;;;;;5060341;28;20213;-82
2021/01/10 10:27:15;;;;;;;14.40;9.55;;;2.10;99.90;;;;;;5060026;28;20207;-82
2021/01/10 10:29:42;;;;;;;14.10;10.20;;;2.20;99.90;;;;;;5059299;28;20210;-81
2021/01/10 10:32:09;;;;;;;15.10;10.38;;;2.30;99.90;;;;;;5059453;28;20723;-83
2021/01/10 10:34:36;;;;;;;12.07;10.07;;;2.60;99.90;;;;;;5058995;28;20233;-83
2021/01/10 10:37:03;;;;;;;14.10;10.00;;;2.50;99.90;;;;;;5062749;28;20203;-82
2021/01/10 10:39:29;;;;;;;12.43;11.05;;;2.50;99.90;;;;;;5062298;28;20207;-82
2021/01/10 10:41:56;;;;;;;13.60;9.70;;;2.40;99.90;;;;;;5065147;28;20225;-82
2021/01/10 10:44:22;;;;;;;14.23;10.48;;;2.60;99.90;;;;;;5069675;28;20790;-81
2021/01/10 10:46:53;;;;;;;14.90;10.20;;;2.60;99.90;;;;;;5074430;28;20223;-81
2021/01/10 10:49:20;;;;;;;12.90;9.07;;;2.60;99.90;;;;;;5074990;28;20186;-82
2021/01/10 10:51:46;;;;;;;13.60;9.25;;;2.60;99.90;;;;;;5073873;28;20227;-81
2021/01/10 10:54:14;;;;;;;12.13;9.63;;;2.80;99.90;;;;;;5075112;28;20227;-82
2021/01/10 10:56:42;;;;;;;14.80;9.73;;;2.60;99.90;;;;;;5075752;28;20566;-81
2021/01/10 10:59:09;;;;;;;13.05;9.57;;;2.60;99.90;;;;;;5076195;28;20214;-80
2021/01/10 11:01:42;;;;;;;12.85;9.30;;;2.60;99.90;;;;;;5074252;28;20201;-79
2021/01/10 11:04:14;;;;;;;15.48;10.57;;;2.10;99.90;;;;;;5074927;28;20207;-82
2021/01/10 11:06:40;;;;;;;13.88;10.00;;;2.00;99.90;;;;;;5074873;28;20644;-79
2021/01/10 11:09:14;;;;;;;17.02;11.88;;;2.00;99.90;;;;;;5073054;28;20203;-81
2021/01/10 11:11:43;;;;;;;14.65;10.63;;;2.10;99.90;;;;;;5071731;28;20222;-79
2021/01/10 11:14:11;;;;;;;12.75;9.55;;;2.10;99.90;;;;;;5072553;28;20215;-79
2021/01/10 11:20:04;;;;;;;16.42;9.25;;;2.60;99.90;;;;;;5065251;28;20206;-83
2021/01/10 11:22:41;;;;;;;11.05;9.05;;;2.50;99.90;;;;;;5073689;28;20227;-82
2021/01/10 11:31:29;;;;;;;12.85;8.63;;;2.40;99.90;;;;;;5037000;28;20245;-82
2021/01/10 11:34:13;;;;;;;12.85;8.85;;;2.40;99.90;;;;;;5059906;28;20222;-82
2021/01/10 11:36:52;;;;;;;11.52;9.30;;;2.10;99.90;;;;;;5060538;28;20187;-82
2021/01/10 11:39:35;;;;;;;13.65;8.65;;;2.10;99.90;;;;;;5061413;28;20187;-81
2021/01/10 11:42:14;;;;;;;11.68;8.65;;;2.20;99.90;;;;;;5061035;28;20226;-82
2021/01/10 11:44:43;;;;;;;15.43;9.43;;;2.20;99.90;;;;;;5059931;28;20202;-82
2021/01/10 11:47:16;;;;;;;13.40;8.95;;;2.20;99.90;;;;;;5061132;28;20191;-82
2021/01/10 11:49:44;;;;;;;13.40;9.55;;;2.30;99.90;;;;;;5061037;28;20215;-82
2021/01/10 11:52:19;;;;;;;16.40;10.75;;;2.30;99.90;;;;;;5061252;28;20593;-81
2021/01/10 11:54:45;;;;;;;14.55;10.65;;;2.20;99.90;;;;;;5060886;28;20210;-82
2021/01/10 11:57:20;;;;;;;15.35;9.68;;;2.10;99.90;;;;;;5060302;28;20203;-82
2021/01/10 11:59:52;;;;;;;45.67;27.13;;;2.30;99.90;;;;;;5060651;28;20258;-84
2021/01/10 12:02:28;;;;;;;15.82;10.52;;;2.20;99.90;;;;;;5059335;28;20227;-82
2021/01/10 12:05:13;;;;;;;13.75;9.00;;;2.30;99.90;;;;;;5055495;28;20205;-83
2021/01/10 12:07:53;;;;;;;9.88;8.07;;;2.20;99.90;;;;;;5059719;28;20187;-83
2021/01/10 12:13:20;;;;;;;15.65;10.13;;;1.90;99.90;;;;;;5059468;28;20261;-84
2021/01/10 12:16:10;;;;;;;18.15;12.07;;;2.00;99.90;;;;;;5063983;28;20215;-83
2021/01/10 12:22:20;;;;;;;13.90;10.90;;;2.30;99.90;;;;;;5061709;28;20207;-83
2021/01/10 12:25:20;;;;;;;17.48;10.60;;;2.30;99.90;;;;;;5023753;28;20203;-82
2021/01/10 12:27:55;;;;;;;12.63;9.10;;;2.30;99.90;;;;;;5066524;28;20214;-82
2021/01/10 12:30:40;;;;;;;15.50;9.48;;;2.30;99.90;;;;;;5065094;28;20226;-80
2021/01/10 12:36:32;;;;;;;19.20;11.88;;;2.50;99.90;;;;;;5047771;28;20237;-82
2021/01/10 12:38:58;;;;;;;13.90;9.13;;;2.40;99.90;;;;;;5059449;28;20222;-82
2021/01/10 12:42:07;;;;;;;14.38;9.70;;;2.60;99.90;;;;;;5061656;28;20207;-82
2021/01/10 12:45:06;;;;;;;10.35;8.20;;;2.50;99.90;;;;;;5045859;28;20207;-82
2021/01/10 12:50:28;;;;;;;13.75;9.25;;;2.70;99.90;;;;;;4998283;28;20194;-85
2021/01/10 12:52:54;;;;;;;9.85;8.77;;;2.90;99.90;;;;;;5052712;28;20223;-85
2021/01/10 12:55:31;;;;;;;14.75;10.57;;;2.90;99.90;;;;;;5067820;28;20261;-85
2021/01/10 12:57:59;;;;;;;11.30;8.40;;;2.80;99.90;;;;;;5067907;28;20230;-86
2021/01/10 13:00:26;;;;;;;12.60;9.07;;;2.70;99.90;;;;;;5066161;28;20233;-85
2021/01/10 13:02:52;;;;;;;13.15;9.70;;;2.70;99.90;;;;;;5066970;28;20711;-85
2021/01/10 13:05:19;;;;;;;13.43;8.95;;;2.70;99.90;;;;;;5067438;28;20238;-84
2021/01/10 13:07:47;;;;;;;19.27;9.52;;;2.70;99.90;;;;;;5067844;28;20214;-84
2021/01/10 13:10:13;;;;;;;10.25;7.90;;;2.70;99.90;;;;;;5069145;28;20199;-84
2021/01/10 13:12:40;;;;;;;13.40;9.63;;;2.60;99.90;;;;;;5069636;28;20254;-84
2021/01/10 13:15:07;;;;;;;13.05;8.73;;;2.60;99.90;;;;;;5067979;28;20731;-86
2021/01/10 13:17:34;;;;;;;10.93;8.25;;;2.70;99.90;;;;;;5065669;28;20269;-84
2021/01/10 13:20:01;;;;;;;16.05;9.88;;;2.50;99.90;;;;;;5068995;28;20216;-84